Swansea, Tasmania

10:31 PM AEST on August 24, 2016 (GMT +1000)
The Grange Hills Swansea | | Change Station

Elev 79 ft 42.04 °S, 148.08 °E | Updated 56 seconds ago

Scattered Clouds
Scattered Clouds
37.6 °F
Feels Like 38 °F
N
0.9
Wind Variable Wind from SE
Gusts 1.0 mph

Today
High -- | Low -- °F
--% Chance of Precip.
Yesterday
High -- | Low -- °F
Precip. -- in
Pressure 29.83 in
Visibility 6.2 miles
Clouds Few 5500 ft
Scattered Clouds 7500 ft
Windchill 38 °F
Dew Point 33 °F
Humidity 85%
Rainfall 0.00 in
Snow Depth Not available.
6:46 AM 5:34 PM
Waning Gibbous, 57% visible
METAR YMHB 241200Z 35003KT 9999 FEW055 SCT075 04/M00 Q1010
Pressure 29.83 in
Visibility 6.2 miles
Clouds Few 5500 ft
Scattered Clouds 7500 ft
Windchill 38 °F
Dew Point 33 °F
Humidity 85%
Rainfall 0.00 in
Snow Depth Not available.
6:46 AM 5:34 PM
Waning Gibbous, 57% visible
METAR YMHB 241200Z 35003KT 9999 FEW055 SCT075 04/M00 Q1010

10-Day Weather Forecast

Almanac

Astronomy

Aug. 24, 2016 Rise Set
Actual Time
Civil Twilight
Nautical Twilight
Astronomical Twilight
Moon
Length of Visible Light
Length of Day
Tomorrow will be .
, % of the Moon is Illuminated

Today's Extremes

Country Highs Country Lows

Community

WunderPhotos

Upload Photos

1,934,583 photos uploaded!

WunderBlog® & News

Nearby

Air Quality

  Air Quality AQ Index Pollutant
Not available.

Snow Depth

Station Depth Elevation

Earthquake Activity

City Distance Mag. Time & Date
Minimum magnitude displayed is 2.5.

Coastal Water Temperatures

Place Temperature

Stations

Nearby Weather Stations

Station Location Temp. Windchill Dew Point Humidity Wind Precip. Elev Updated Type